Time;durP1;ratioP1;P1;durP2;ratioP2;P2;SDS_P1;SDS_P2;PMS_P1;PMS_P2;Temp;Humidity;BMP_temperature;BMP_pressure;BME280_temperature;BME280_humidity;BME280_pressure;Samples;Min_cycle;Max_cycle;Signal;HPM_P1;HPM_P2
2022/06/05 00:00:56;;;;;;;4.30;4.00;;;;;;;;;;5120675;28;20195;-62
2022/06/05 00:03:30;;;;;;;4.70;4.40;;;;;;;;;;5118001;28;20654;-61
2022/06/05 00:06:03;;;;;;;4.50;4.20;;;;;;;;;;5100495;28;20200;-62
2022/06/05 00:08:35;;;;;;;4.63;4.32;;;;;;;;;;5099777;28;20215;-61
2022/06/05 00:11:03;;;;;;;4.85;4.50;;;;;;;;;;5116220;28;20195;-61
2022/06/05 00:13:32;;;;;;;4.80;4.40;;;;;;;;;;5119749;28;20252;-63
2022/06/05 00:15:59;;;;;;;4.50;4.20;;;;;;;;;;5120590;28;20597;-61
2022/06/05 00:18:33;;;;;;;4.80;4.50;;;;;;;;;;5120359;28;20203;-62
2022/06/05 00:21:00;;;;;;;4.78;4.30;;;;;;;;;;5118884;28;20548;-62
2022/06/05 00:23:27;;;;;;;4.80;4.50;;;;;;;;;;5120183;28;20206;-66
2022/06/05 00:26:01;;;;;;;4.72;4.43;;;;;;;;;;5120236;28;20221;-61
2022/06/05 00:28:33;;;;;;;4.50;4.20;;;;;;;;;;5120328;28;20198;-62
2022/06/05 00:31:04;;;;;;;4.43;4.13;;;;;;;;;;5119954;28;20449;-62
2022/06/05 00:33:36;;;;;;;4.65;4.35;;;;;;;;;;5119671;28;20198;-62
2022/06/05 00:36:06;;;;;;;4.70;4.40;;;;;;;;;;5119407;28;20206;-61
2022/06/05 00:38:38;;;;;;;5.07;4.68;;;;;;;;;;5119483;28;20206;-61
2022/06/05 00:41:26;;;;;;;4.72;4.43;;;;;;;;;;5120187;28;20651;-62
2022/06/05 00:43:54;;;;;;;4.80;4.50;;;;;;;;;;5120245;28;20205;-61
2022/06/05 00:46:23;;;;;;;4.65;4.35;;;;;;;;;;5119547;28;20226;-61
2022/06/05 00:48:51;;;;;;;5.25;4.85;;;;;;;;;;5119446;28;20203;-62
2022/06/05 00:51:19;;;;;;;4.95;4.55;;;;;;;;;;5119488;28;20206;-62
2022/06/05 00:53:47;;;;;;;4.82;4.53;;;;;;;;;;5120136;28;20207;-62
2022/06/05 00:56:14;;;;;;;4.85;4.55;;;;;;;;;;5119057;28;20199;-62
2022/06/05 00:58:42;;;;;;;5.25;4.80;;;;;;;;;;5120013;28;20293;-62
2022/06/05 01:01:09;;;;;;;4.90;4.50;;;;;;;;;;5119755;28;20542;-62
2022/06/05 01:03:37;;;;;;;5.18;4.80;;;;;;;;;;5118363;28;20510;-62
2022/06/05 01:06:06;;;;;;;5.20;4.80;;;;;;;;;;5119617;28;20191;-62
2022/06/05 01:08:34;;;;;;;4.75;4.45;;;;;;;;;;5119344;28;20293;-62
2022/06/05 01:11:08;;;;;;;5.22;4.93;;;;;;;;;;5119399;28;20194;-62
2022/06/05 01:13:40;;;;;;;4.70;4.40;;;;;;;;;;5118438;28;20265;-62
2022/06/05 01:16:12;;;;;;;4.93;4.63;;;;;;;;;;5118928;28;20569;-62
2022/06/05 01:18:44;;;;;;;4.65;4.35;;;;;;;;;;5119716;28;20268;-62
2022/06/05 01:21:22;;;;;;;5.10;4.70;;;;;;;;;;5119094;28;20203;-61
2022/06/05 01:23:55;;;;;;;5.15;4.85;;;;;;;;;;5118881;28;20217;-62
2022/06/05 01:26:29;;;;;;;5.05;4.75;;;;;;;;;;5122940;27;20208;-62
2022/06/05 01:29:01;;;;;;;4.55;4.25;;;;;;;;;;5139748;27;20616;-62
2022/06/05 01:31:31;;;;;;;4.32;4.13;;;;;;;;;;5126095;27;20198;-62
2022/06/05 01:34:01;;;;;;;4.97;4.68;;;;;;;;;;5119397;28;20195;-62
2022/06/05 01:36:33;;;;;;;4.90;4.60;;;;;;;;;;5119613;28;20221;-62
2022/06/05 01:39:02;;;;;;;4.70;4.40;;;;;;;;;;5119501;28;20203;-62
2022/06/05 01:41:33;;;;;;;5.05;4.75;;;;;;;;;;5119557;28;20515;-62
2022/06/05 01:44:04;;;;;;;4.88;4.57;;;;;;;;;;5135564;27;20209;-62
2022/06/05 01:46:35;;;;;;;5.10;4.80;;;;;;;;;;5139005;27;20202;-62
2022/06/05 01:49:09;;;;;;;4.82;4.53;;;;;;;;;;5139159;27;20202;-62
2022/06/05 01:51:38;;;;;;;4.78;4.47;;;;;;;;;;5139667;27;20295;-62
2022/06/05 01:54:10;;;;;;;4.80;4.50;;;;;;;;;;5140156;27;20221;-62
2022/06/05 01:56:41;;;;;;;4.80;4.50;;;;;;;;;;5130783;27;20211;-62
2022/06/05 01:59:11;;;;;;;4.72;4.43;;;;;;;;;;5118723;28;20260;-62
2022/06/05 02:01:41;;;;;;;4.25;4.03;;;;;;;;;;5125015;27;20198;-62
2022/06/05 02:04:13;;;;;;;5.10;4.80;;;;;;;;;;5129663;27;20260;-62
2022/06/05 02:06:43;;;;;;;5.00;4.70;;;;;;;;;;5118353;27;20200;-62
2022/06/05 02:09:13;;;;;;;4.78;4.43;;;;;;;;;;5117978;27;20497;-62
2022/06/05 02:11:42;;;;;;;4.82;4.53;;;;;;;;;;5118819;28;20309;-62
2022/06/05 02:14:10;;;;;;;5.07;4.78;;;;;;;;;;5118516;28;20242;-62
2022/06/05 02:16:39;;;;;;;4.53;4.22;;;;;;;;;;5118802;27;20581;-62
2022/06/05 02:19:08;;;;;;;5.07;4.78;;;;;;;;;;5118513;28;20211;-62
2022/06/05 02:21:38;;;;;;;5.00;4.70;;;;;;;;;;5118428;28;20502;-61
2022/06/05 02:24:07;;;;;;;5.15;4.85;;;;;;;;;;5118751;28;20210;-62
2022/06/05 02:26:34;;;;;;;4.72;4.43;;;;;;;;;;5136690;27;20263;-63
2022/06/05 02:29:03;;;;;;;5.03;4.72;;;;;;;;;;5138911;27;20202;-62
2022/06/05 02:31:46;;;;;;;4.63;4.40;;;;;;;;;;5138343;27;20194;-62
2022/06/05 02:34:21;;;;;;;4.70;4.40;;;;;;;;;;5136823;27;20453;-63
2022/06/05 02:36:53;;;;;;;4.60;4.30;;;;;;;;;;5138411;27;20197;-63
2022/06/05 02:39:25;;;;;;;4.90;4.60;;;;;;;;;;5137924;27;20202;-63
2022/06/05 02:41:56;;;;;;;5.03;4.63;;;;;;;;;;5126504;27;20230;-62
2022/06/05 02:44:30;;;;;;;4.32;4.03;;;;;;;;;;5131215;27;20477;-63
2022/06/05 02:47:07;;;;;;;4.68;4.38;;;;;;;;;;5136624;27;20229;-62
2022/06/05 02:49:38;;;;;;;4.80;4.50;;;;;;;;;;5138035;27;20225;-63
2022/06/05 02:52:06;;;;;;;4.72;4.43;;;;;;;;;;5120110;27;20294;-62
2022/06/05 02:54:39;;;;;;;4.75;4.45;;;;;;;;;;5138350;27;20194;-63
2022/06/05 02:57:07;;;;;;;4.45;4.15;;;;;;;;;;5137944;27;20214;-63
2022/06/05 02:59:36;;;;;;;4.30;4.00;;;;;;;;;;5137327;27;20205;-62
2022/06/05 03:04:48;;;;;;;4.70;4.40;;;;;;;;;;5123228;27;20284;-62
2022/06/05 03:07:15;;;;;;;4.65;4.38;;;;;;;;;;5127145;27;20228;-62
2022/06/05 03:09:44;;;;;;;5.00;4.70;;;;;;;;;;5131216;27;20198;-62
2022/06/05 03:12:11;;;;;;;4.68;4.38;;;;;;;;;;5149121;27;20218;-63
2022/06/05 03:14:40;;;;;;;4.30;4.00;;;;;;;;;;5152558;27;20206;-63
2022/06/05 03:17:08;;;;;;;4.20;3.90;;;;;;;;;;5138159;27;20491;-63
2022/06/05 03:19:35;;;;;;;4.38;4.10;;;;;;;;;;5138024;28;20202;-62
2022/06/05 03:22:03;;;;;;;4.82;4.53;;;;;;;;;;5136793;28;20209;-62
2022/06/05 03:24:30;;;;;;;4.70;4.40;;;;;;;;;;5137391;28;20206;-63
2022/06/05 03:26:58;;;;;;;4.57;4.28;;;;;;;;;;5144501;27;20208;-62
2022/06/05 03:29:25;;;;;;;4.43;4.20;;;;;;;;;;5158434;27;20205;-62
2022/06/05 03:31:54;;;;;;;4.85;4.55;;;;;;;;;;5158024;27;20201;-63
2022/06/05 03:34:21;;;;;;;4.43;4.13;;;;;;;;;;5158963;27;20205;-63
2022/06/05 03:36:49;;;;;;;4.55;4.25;;;;;;;;;;5158944;27;20201;-62
2022/06/05 03:39:17;;;;;;;4.75;4.35;;;;;;;;;;5158568;27;20197;-63
2022/06/05 03:41:45;;;;;;;4.70;4.43;;;;;;;;;;5158588;27;20233;-61
2022/06/05 03:44:12;;;;;;;4.70;4.40;;;;;;;;;;5158852;27;20209;-61
2022/06/05 03:46:40;;;;;;;4.32;4.13;;;;;;;;;;5158606;27;20581;-62
2022/06/05 03:49:10;;;;;;;4.57;4.28;;;;;;;;;;5152864;27;20302;-61
2022/06/05 03:51:38;;;;;;;4.60;4.30;;;;;;;;;;5136736;27;20226;-62
2022/06/05 03:54:05;;;;;;;4.40;4.10;;;;;;;;;;5137747;28;20577;-62
2022/06/05 03:56:33;;;;;;;4.47;4.28;;;;;;;;;;5138120;27;20217;-62
2022/06/05 03:59:01;;;;;;;4.70;4.40;;;;;;;;;;5137002;28;20186;-62
2022/06/05 04:01:28;;;;;;;4.32;4.05;;;;;;;;;;5137523;28;20214;-61
2022/06/05 04:03:57;;;;;;;4.57;4.38;;;;;;;;;;5137582;27;20201;-62
2022/06/05 04:06:28;;;;;;;4.53;4.22;;;;;;;;;;5137336;28;20202;-62
2022/06/05 04:08:56;;;;;;;4.88;4.57;;;;;;;;;;5136297;27;20222;-62
2022/06/05 04:11:23;;;;;;;4.78;4.47;;;;;;;;;;5141698;27;20615;-62
2022/06/05 04:13:51;;;;;;;4.43;4.18;;;;;;;;;;5141071;27;20202;-62
2022/06/05 04:16:19;;;;;;;4.55;4.30;;;;;;;;;;5128445;27;20287;-62
2022/06/05 04:18:47;;;;;;;4.78;4.47;;;;;;;;;;5136431;27;20202;-62
2022/06/05 04:21:16;;;;;;;4.70;4.40;;;;;;;;;;5123837;27;20205;-62
2022/06/05 04:23:44;;;;;;;4.93;4.63;;;;;;;;;;5141171;27;20206;-61
2022/06/05 04:26:13;;;;;;;4.95;4.55;;;;;;;;;;5140601;27;20227;-62
2022/06/05 04:28:41;;;;;;;4.70;4.40;;;;;;;;;;5141500;27;20226;-62
2022/06/05 04:31:17;;;;;;;4.55;4.28;;;;;;;;;;5140558;27;20241;-61
2022/06/05 04:33:44;;;;;;;4.28;4.07;;;;;;;;;;5140256;27;20194;-61
2022/06/05 04:36:11;;;;;;;5.13;4.82;;;;;;;;;;5140946;27;20212;-62
2022/06/05 04:38:39;;;;;;;6.00;5.40;;;;;;;;;;5140612;27;20604;-62
2022/06/05 04:41:08;;;;;;;4.47;4.20;;;;;;;;;;5140381;27;20238;-62
2022/06/05 04:43:36;;;;;;;5.85;5.45;;;;;;;;;;5140308;27;20202;-61
2022/06/05 04:46:03;;;;;;;4.75;4.45;;;;;;;;;;5136095;27;20276;-61
2022/06/05 04:48:31;;;;;;;4.55;4.28;;;;;;;;;;5140895;27;20629;-62
2022/06/05 04:50:58;;;;;;;4.57;4.28;;;;;;;;;;5140429;27;20577;-63
2022/06/05 04:53:25;;;;;;;5.13;4.82;;;;;;;;;;5132463;27;20274;-62
2022/06/05 04:55:53;;;;;;;4.45;4.20;;;;;;;;;;5140342;27;20190;-61
2022/06/05 04:58:21;;;;;;;5.38;4.97;;;;;;;;;;5140422;27;20454;-61
2022/06/05 05:00:49;;;;;;;4.68;4.38;;;;;;;;;;5140076;27;20365;-61
2022/06/05 05:03:16;;;;;;;4.90;4.60;;;;;;;;;;5139721;27;20194;-62
2022/06/05 05:05:43;;;;;;;4.88;4.57;;;;;;;;;;5140604;27;20483;-61
2022/06/05 05:08:11;;;;;;;4.88;4.57;;;;;;;;;;5139893;27;20264;-61
2022/06/05 05:10:39;;;;;;;4.90;4.60;;;;;;;;;;5139327;27;20698;-61
2022/06/05 05:13:07;;;;;;;5.03;4.72;;;;;;;;;;5140308;27;20238;-61
2022/06/05 05:15:36;;;;;;;4.80;4.50;;;;;;;;;;5140012;27;20217;-62
2022/06/05 05:18:03;;;;;;;4.93;4.63;;;;;;;;;;5139283;27;20194;-62
2022/06/05 05:20:30;;;;;;;4.82;4.53;;;;;;;;;;5139569;27;20198;-62
2022/06/05 05:22:58;;;;;;;5.10;4.80;;;;;;;;;;5139234;27;20194;-62
2022/06/05 05:25:25;;;;;;;4.72;4.43;;;;;;;;;;5140077;27;20198;-62
2022/06/05 05:27:53;;;;;;;5.00;4.70;;;;;;;;;;5139264;27;20228;-62
2022/06/05 05:30:21;;;;;;;4.90;4.60;;;;;;;;;;5138987;27;20199;-62
2022/06/05 05:32:50;;;;;;;4.80;4.50;;;;;;;;;;5140033;27;20210;-62
2022/06/05 05:35:20;;;;;;;5.35;4.97;;;;;;;;;;5138142;27;20198;-62
2022/06/05 05:37:47;;;;;;;4.90;4.60;;;;;;;;;;5138883;27;20194;-62
2022/06/05 05:43:00;;;;;;;4.78;4.47;;;;;;;;;;5118813;28;20202;-62
2022/06/05 05:45:27;;;;;;;5.03;4.72;;;;;;;;;;5117574;28;20196;-62
2022/06/05 05:47:56;;;;;;;4.65;4.38;;;;;;;;;;5118736;28;20313;-62
2022/06/05 05:50:23;;;;;;;4.72;4.43;;;;;;;;;;5118117;28;20203;-62
2022/06/05 05:52:54;;;;;;;4.80;4.50;;;;;;;;;;5118088;28;20211;-62
2022/06/05 05:55:22;;;;;;;4.75;4.45;;;;;;;;;;5117504;28;20263;-62
2022/06/05 05:57:49;;;;;;;4.90;4.50;;;;;;;;;;5118231;28;20191;-62
2022/06/05 06:00:18;;;;;;;4.75;4.45;;;;;;;;;;5118560;28;20463;-62
2022/06/05 06:02:46;;;;;;;4.85;4.55;;;;;;;;;;5118467;28;20202;-62
2022/06/05 06:05:15;;;;;;;5.05;4.75;;;;;;;;;;5117972;28;20199;-62
2022/06/05 06:07:43;;;;;;;5.10;4.78;;;;;;;;;;5098687;28;20203;-62
2022/06/05 06:10:11;;;;;;;4.60;4.35;;;;;;;;;;5107428;28;20218;-63
2022/06/05 06:12:38;;;;;;;4.80;4.50;;;;;;;;;;5117818;28;20210;-62
2022/06/05 06:15:06;;;;;;;4.85;4.55;;;;;;;;;;5117526;28;20194;-62
2022/06/05 06:17:33;;;;;;;4.80;4.50;;;;;;;;;;5117082;28;20204;-62
2022/06/05 06:20:01;;;;;;;4.68;4.40;;;;;;;;;;5117882;28;20516;-62
2022/06/05 06:22:30;;;;;;;4.72;4.43;;;;;;;;;;5117924;28;20665;-62
2022/06/05 06:24:57;;;;;;;4.88;4.57;;;;;;;;;;5117183;28;20453;-63
2022/06/05 06:27:24;;;;;;;5.40;5.10;;;;;;;;;;5118161;28;20280;-62
2022/06/05 06:29:52;;;;;;;5.10;4.80;;;;;;;;;;5116365;28;20230;-62
2022/06/05 06:32:19;;;;;;;4.35;4.15;;;;;;;;;;5116706;28;20199;-62
2022/06/05 06:34:46;;;;;;;5.03;4.72;;;;;;;;;;5116894;28;20199;-62
2022/06/05 06:37:14;;;;;;;4.88;4.57;;;;;;;;;;5116988;28;20202;-62
2022/06/05 06:39:43;;;;;;;4.70;4.40;;;;;;;;;;5117371;28;20213;-62
2022/06/05 06:42:10;;;;;;;5.00;4.70;;;;;;;;;;5131382;27;20252;-62
2022/06/05 06:44:37;;;;;;;5.32;5.03;;;;;;;;;;5118864;27;20210;-62
2022/06/05 06:47:05;;;;;;;5.43;5.13;;;;;;;;;;5135379;27;20566;-62
2022/06/05 06:49:35;;;;;;;4.85;4.57;;;;;;;;;;5136986;27;20225;-62
2022/06/05 06:52:03;;;;;;;4.90;4.60;;;;;;;;;;5134698;27;20311;-62
2022/06/05 06:54:31;;;;;;;4.43;4.22;;;;;;;;;;5118074;28;20211;-62
2022/06/05 06:56:59;;;;;;;4.40;4.20;;;;;;;;;;5127275;27;20202;-62
2022/06/05 06:59:27;;;;;;;4.90;4.60;;;;;;;;;;5137729;27;20208;-62
2022/06/05 07:01:55;;;;;;;5.18;4.88;;;;;;;;;;5137578;27;20573;-62
2022/06/05 07:04:22;;;;;;;5.95;5.55;;;;;;;;;;5127025;27;20211;-62
2022/06/05 07:06:50;;;;;;;5.75;5.40;;;;;;;;;;5115920;28;20565;-62
2022/06/05 07:09:17;;;;;;;5.32;5.03;;;;;;;;;;5117344;28;20237;-62
2022/06/05 07:11:45;;;;;;;5.13;4.82;;;;;;;;;;5116676;27;20259;-62
2022/06/05 07:14:16;;;;;;;4.80;4.50;;;;;;;;;;5125108;27;20202;-62
2022/06/05 07:16:44;;;;;;;5.55;5.25;;;;;;;;;;5123529;27;20198;-62
2022/06/05 07:19:12;;;;;;;5.43;5.13;;;;;;;;;;5117270;28;20301;-62
2022/06/05 07:21:39;;;;;;;4.95;4.65;;;;;;;;;;5115514;28;20199;-62
2022/06/05 07:24:07;;;;;;;4.93;4.63;;;;;;;;;;5116568;28;20195;-62
2022/06/05 07:26:35;;;;;;;4.93;4.63;;;;;;;;;;5115636;28;20203;-62
2022/06/05 07:29:03;;;;;;;4.75;4.53;;;;;;;;;;5127495;28;20227;-62
2022/06/05 07:31:31;;;;;;;5.20;4.90;;;;;;;;;;5136836;28;20202;-62
2022/06/05 07:33:59;;;;;;;5.32;5.03;;;;;;;;;;5135177;28;20206;-62
2022/06/05 07:36:27;;;;;;;5.63;5.32;;;;;;;;;;5135714;28;20596;-63
2022/06/05 07:38:55;;;;;;;5.20;4.90;;;;;;;;;;5136300;28;20212;-62
2022/06/05 07:41:24;;;;;;;5.22;4.93;;;;;;;;;;5136661;28;20226;-63
2022/06/05 07:43:51;;;;;;;4.70;4.50;;;;;;;;;;5135900;27;20487;-62
2022/06/05 07:46:18;;;;;;;4.60;4.40;;;;;;;;;;5124063;27;20203;-62
2022/06/05 07:48:47;;;;;;;4.60;4.38;;;;;;;;;;5119804;27;20614;-62
2022/06/05 07:56:46;;;;;;;4.88;4.57;;;;;;;;;;5120742;28;20190;-62
2022/06/05 07:59:13;;;;;;;4.65;4.38;;;;;;;;;;5128021;27;20475;-62
2022/06/05 08:01:40;;;;;;;4.53;4.22;;;;;;;;;;5120407;28;20211;-62
2022/06/05 08:04:09;;;;;;;4.20;4.00;;;;;;;;;;5127840;27;20197;-62
2022/06/05 08:06:37;;;;;;;4.47;4.18;;;;;;;;;;5139226;27;20191;-62
2022/06/05 08:09:05;;;;;;;4.50;4.25;;;;;;;;;;5139418;27;20237;-62
2022/06/05 08:11:33;;;;;;;4.70;4.40;;;;;;;;;;5130589;27;20199;-62
2022/06/05 08:14:00;;;;;;;4.75;4.45;;;;;;;;;;5121173;27;20207;-62
2022/06/05 08:16:28;;;;;;;4.60;4.30;;;;;;;;;;5138825;27;20199;-62
2022/06/05 08:18:56;;;;;;;4.85;4.55;;;;;;;;;;5140393;27;20633;-62
2022/06/05 08:21:26;;;;;;;4.50;4.30;;;;;;;;;;5129286;27;20199;-62
2022/06/05 08:23:54;;;;;;;4.95;4.65;;;;;;;;;;5126281;27;20222;-62
2022/06/05 08:26:21;;;;;;;4.30;4.10;;;;;;;;;;5128616;27;20199;-62
2022/06/05 08:28:48;;;;;;;4.78;4.47;;;;;;;;;;5119736;28;20658;-62
2022/06/05 08:31:16;;;;;;;4.22;4.03;;;;;;;;;;5119811;27;20209;-62
2022/06/05 08:33:44;;;;;;;4.70;4.40;;;;;;;;;;5120255;27;20485;-62
2022/06/05 08:36:12;;;;;;;4.70;4.40;;;;;;;;;;5130894;27;20202;-62
2022/06/05 08:41:50;;;;;;;4.70;4.40;;;;;;;;;;5099126;28;20531;-61
2022/06/05 08:44:43;;;;;;;5.93;4.45;;;;;;;;;;5098542;28;20204;-62
2022/06/05 08:47:15;;;;;;;9.07;5.38;;;;;;;;;;5098404;28;20513;-61
2022/06/05 08:49:45;;;;;;;8.02;5.00;;;;;;;;;;5098766;28;20316;-61
2022/06/05 08:52:19;;;;;;;5.28;4.85;;;;;;;;;;5108634;28;20202;-61
2022/06/05 08:54:52;;;;;;;6.75;4.65;;;;;;;;;;5118877;28;20221;-61
2022/06/05 08:57:22;;;;;;;5.68;5.20;;;;;;;;;;5116887;28;20450;-61
2022/06/05 08:59:53;;;;;;;5.60;4.70;;;;;;;;;;5117588;28;20267;-61
2022/06/05 09:02:23;;;;;;;4.97;4.57;;;;;;;;;;5117765;28;20221;-61
2022/06/05 09:04:54;;;;;;;5.45;4.50;;;;;;;;;;5123268;27;20281;-61
2022/06/05 09:07:24;;;;;;;5.32;4.82;;;;;;;;;;5125589;27;20370;-61
2022/06/05 09:09:57;;;;;;;5.63;5.13;;;;;;;;;;5117063;28;20286;-61
2022/06/05 09:12:30;;;;;;;5.60;5.10;;;;;;;;;;5117830;28;20478;-61
2022/06/05 09:15:01;;;;;;;5.47;5.07;;;;;;;;;;5118067;28;20197;-61
2022/06/05 09:17:31;;;;;;;5.47;5.07;;;;;;;;;;5118918;28;20286;-61
2022/06/05 09:20:01;;;;;;;5.28;4.97;;;;;;;;;;5118220;27;20191;-61
2022/06/05 09:22:33;;;;;;;6.00;5.50;;;;;;;;;;5118771;28;20500;-61
2022/06/05 09:25:15;;;;;;;5.72;5.43;;;;;;;;;;5118085;28;20260;-62
2022/06/05 09:27:49;;;;;;;6.38;5.88;;;;;;;;;;5116709;28;20479;-62
2022/06/05 09:30:20;;;;;;;5.80;5.40;;;;;;;;;;5120636;27;20640;-62
2022/06/05 09:32:56;;;;;;;6.22;5.82;;;;;;;;;;5139240;27;20575;-61
2022/06/05 09:35:26;;;;;;;5.75;5.35;;;;;;;;;;5138594;27;20209;-62
2022/06/05 09:37:57;;;;;;;6.10;5.70;;;;;;;;;;5138726;27;20493;-62
2022/06/05 09:40:28;;;;;;;5.63;5.22;;;;;;;;;;5136338;27;20267;-62
2022/06/05 09:43:06;;;;;;;6.47;6.07;;;;;;;;;;5138702;27;20337;-62
2022/06/05 09:45:41;;;;;;;6.13;5.63;;;;;;;;;;5103430;27;20276;-62
2022/06/05 09:48:14;;;;;;;6.20;5.63;;;;;;;;;;5098465;28;20294;-61
2022/06/05 09:50:42;;;;;;;6.32;5.93;;;;;;;;;;5132587;27;20233;-61
2022/06/05 09:53:13;;;;;;;6.47;6.00;;;;;;;;;;5139324;27;20198;-62
2022/06/05 09:55:46;;;;;;;6.63;6.05;;;;;;;;;;5138454;27;20195;-61
2022/06/05 09:58:24;;;;;;;6.20;5.80;;;;;;;;;;5138492;27;20581;-62
2022/06/05 10:00:53;;;;;;;6.30;5.90;;;;;;;;;;5122276;27;20210;-62
2022/06/05 10:03:22;;;;;;;6.00;5.50;;;;;;;;;;5118079;27;20191;-62
2022/06/05 10:06:04;;;;;;;6.68;6.18;;;;;;;;;;5117624;28;20203;-62
2022/06/05 10:08:35;;;;;;;6.32;5.93;;;;;;;;;;5117070;28;20836;-61
2022/06/05 10:11:02;;;;;;;6.57;6.07;;;;;;;;;;5117833;28;20215;-61
2022/06/05 10:13:43;;;;;;;6.60;6.20;;;;;;;;;;5117823;28;20221;-61
2022/06/05 10:16:13;;;;;;;6.28;5.85;;;;;;;;;;5118105;28;20267;-61
2022/06/05 10:18:43;;;;;;;6.90;6.30;;;;;;;;;;5117655;27;20241;-61
2022/06/05 10:21:11;;;;;;;7.10;6.53;;;;;;;;;;5136342;27;20558;-61
2022/06/05 10:23:46;;;;;;;17.35;8.07;;;;;;;;;;5137522;27;20202;-63
2022/06/05 10:26:17;;;;;;;8.48;7.38;;;;;;;;;;5136778;27;20198;-61
2022/06/05 10:28:46;;;;;;;10.00;9.02;;;;;;;;;;5137600;27;20202;-61
2022/06/05 10:31:15;;;;;;;9.63;8.73;;;;;;;;;;5118169;27;20681;-60
2022/06/05 10:33:49;;;;;;;10.13;9.23;;;;;;;;;;5122243;27;20202;-61
2022/06/05 10:36:19;;;;;;;9.98;9.18;;;;;;;;;;5137901;27;20201;-60
2022/06/05 10:38:50;;;;;;;10.60;9.77;;;;;;;;;;5137946;27;20207;-60
2022/06/05 10:41:20;;;;;;;10.77;9.85;;;;;;;;;;5137085;27;20252;-60
2022/06/05 10:43:53;;;;;;;11.05;10.15;;;;;;;;;;5138326;27;20209;-60
2022/06/05 10:46:22;;;;;;;10.85;10.15;;;;;;;;;;5124763;27;20213;-61
2022/06/05 10:48:53;;;;;;;10.98;10.15;;;;;;;;;;5138333;27;20212;-61
2022/06/05 10:51:25;;;;;;;11.38;10.57;;;;;;;;;;5126291;27;20287;-60
2022/06/05 10:53:55;;;;;;;11.85;10.98;;;;;;;;;;5117522;28;20540;-60
2022/06/05 10:56:30;;;;;;;11.82;11.07;;;;;;;;;;5117490;28;20203;-60
2022/06/05 10:59:06;;;;;;;12.60;11.70;;;;;;;;;;5116606;28;20210;-60
2022/06/05 11:01:37;;;;;;;13.10;12.18;;;;;;;;;;5117835;28;20281;-60
2022/06/05 11:04:11;;;;;;;12.18;11.38;;;;;;;;;;5132066;27;20259;-60
2022/06/05 11:06:43;;;;;;;12.88;11.98;;;;;;;;;;5137393;27;20212;-60
2022/06/05 11:09:17;;;;;;;13.07;12.25;;;;;;;;;;5137210;27;20236;-60
2022/06/05 11:14:40;;;;;;;13.82;12.70;;;;;;;;;;5136763;27;20578;-60
2022/06/05 11:17:22;;;;;;;13.25;12.32;;;;;;;;;;5118131;27;20194;-60
2022/06/05 11:19:53;;;;;;;13.10;12.20;;;;;;;;;;5124545;27;20205;-60
2022/06/05 11:22:23;;;;;;;13.45;12.45;;;;;;;;;;5135521;28;20209;-60
2022/06/05 11:24:51;;;;;;;13.70;12.73;;;;;;;;;;5129180;28;20202;-60
2022/06/05 11:27:27;;;;;;;13.20;12.30;;;;;;;;;;5116702;28;20209;-60
2022/06/05 11:29:59;;;;;;;12.98;12.10;;;;;;;;;;5115706;28;20229;-60
2022/06/05 11:32:34;;;;;;;12.57;11.77;;;;;;;;;;5115774;28;20217;-59
2022/06/05 11:35:09;;;;;;;12.88;11.98;;;;;;;;;;5115566;28;20199;-60
2022/06/05 11:37:53;;;;;;;12.93;12.10;;;;;;;;;;5128520;28;20194;-60
2022/06/05 11:40:36;;;;;;;12.68;11.77;;;;;;;;;;5136240;28;20191;-60
2022/06/05 11:43:13;;;;;;;12.95;12.05;;;;;;;;;;5116361;28;20297;-60
2022/06/05 11:45:51;;;;;;;13.23;12.30;;;;;;;;;;5116728;28;20645;-62
2022/06/05 11:48:22;;;;;;;12.73;11.82;;;;;;;;;;5114244;28;20332;-61
2022/06/05 11:50:59;;;;;;;13.07;12.18;;;;;;;;;;5113234;28;20664;-61
2022/06/05 11:53:31;;;;;;;12.65;11.75;;;;;;;;;;5093897;28;20214;-61
2022/06/05 11:56:00;;;;;;;12.73;11.82;;;;;;;;;;5111284;28;20206;-61
2022/06/05 11:58:38;;;;;;;13.15;12.07;;;;;;;;;;5114157;28;20573;-61
2022/06/05 12:01:10;;;;;;;13.38;12.30;;;;;;;;;;5112459;28;20334;-61
2022/06/05 12:03:43;;;;;;;13.25;12.25;;;;;;;;;;5112659;28;20237;-61
2022/06/05 12:06:13;;;;;;;12.55;11.65;;;;;;;;;;5114177;28;20192;-61
2022/06/05 12:08:42;;;;;;;12.80;11.80;;;;;;;;;;5114570;28;20522;-61
2022/06/05 12:11:11;;;;;;;12.82;11.93;;;;;;;;;;5113463;28;20215;-61
2022/06/05 12:13:56;;;;;;;12.45;11.65;;;;;;;;;;5114170;28;20233;-61
2022/06/05 12:16:31;;;;;;;12.15;11.43;;;;;;;;;;5113301;28;20203;-60
2022/06/05 12:19:01;;;;;;;12.93;12.13;;;;;;;;;;5112274;28;20546;-60
2022/06/05 12:21:29;;;;;;;11.90;11.10;;;;;;;;;;5112826;28;20206;-61
2022/06/05 12:23:59;;;;;;;12.07;11.27;;;;;;;;;;5112672;28;20498;-60
2022/06/05 12:26:31;;;;;;;12.40;11.40;;;;;;;;;;5114070;28;20249;-60
2022/06/05 12:29:03;;;;;;;12.90;12.00;;;;;;;;;;5115219;28;20199;-60
2022/06/05 12:31:35;;;;;;;11.57;10.77;;;;;;;;;;5098366;28;20217;-60
2022/06/05 12:34:03;;;;;;;11.73;10.98;;;;;;;;;;5117867;28;20207;-60
2022/06/05 12:36:34;;;;;;;11.23;10.43;;;;;;;;;;5117288;28;20217;-60
2022/06/05 12:39:02;;;;;;;12.25;11.30;;;;;;;;;;5117197;28;20196;-60
2022/06/05 12:41:43;;;;;;;11.80;11.00;;;;;;;;;;5118505;27;20370;-60
2022/06/05 12:44:16;;;;;;;11.15;10.45;;;;;;;;;;5117605;28;20213;-60
2022/06/05 12:46:54;;;;;;;10.90;10.20;;;;;;;;;;5117273;28;20282;-60
2022/06/05 12:49:24;;;;;;;11.15;10.45;;;;;;;;;;5118010;28;20260;-60
2022/06/05 12:52:05;;;;;;;11.23;10.52;;;;;;;;;;5116831;28;20227;-60
2022/06/05 12:54:37;;;;;;;10.77;10.07;;;;;;;;;;5116860;28;20203;-60
2022/06/05 12:57:08;;;;;;;10.32;9.52;;;;;;;;;;5117274;28;20199;-60
2022/06/05 12:59:41;;;;;;;10.18;9.50;;;;;;;;;;5116572;28;20199;-60
2022/06/05 13:02:18;;;;;;;9.90;9.30;;;;;;;;;;5117610;28;20209;-60
2022/06/05 13:04:47;;;;;;;9.63;9.02;;;;;;;;;;5116452;28;20209;-60
2022/06/05 13:07:19;;;;;;;9.27;8.57;;;;;;;;;;5117569;28;20255;-60
2022/06/05 13:09:48;;;;;;;9.32;8.73;;;;;;;;;;5116804;28;20199;-60
2022/06/05 13:12:19;;;;;;;9.90;9.20;;;;;;;;;;5116359;28;20294;-60
2022/06/05 13:14:50;;;;;;;8.55;7.95;;;;;;;;;;5117666;28;20230;-61
2022/06/05 13:17:23;;;;;;;9.55;8.77;;;;;;;;;;5117689;28;20199;-60
2022/06/05 13:19:53;;;;;;;9.32;8.73;;;;;;;;;;5117671;28;20624;-61
2022/06/05 13:22:27;;;;;;;8.90;8.30;;;;;;;;;;5118003;28;20226;-61
2022/06/05 13:24:57;;;;;;;8.68;8.07;;;;;;;;;;5117657;28;20294;-62
2022/06/05 13:27:43;;;;;;;8.60;7.93;;;;;;;;;;5116112;28;20502;-61
2022/06/05 13:30:14;;;;;;;8.15;7.65;;;;;;;;;;5118030;28;20574;-61
2022/06/05 13:32:48;;;;;;;8.60;8.00;;;;;;;;;;5118469;28;20251;-61
2022/06/05 13:35:22;;;;;;;8.40;7.80;;;;;;;;;;5117537;28;20217;-61
2022/06/05 13:37:51;;;;;;;8.95;8.35;;;;;;;;;;5115976;28;20213;-61
2022/06/05 13:40:23;;;;;;;8.18;7.68;;;;;;;;;;5116609;28;20218;-61
2022/06/05 13:42:52;;;;;;;8.32;7.72;;;;;;;;;;5114860;28;20241;-61
2022/06/05 13:45:27;;;;;;;8.18;7.57;;;;;;;;;;5116272;28;20199;-61
2022/06/05 13:48:01;;;;;;;8.45;7.85;;;;;;;;;;5116127;28;20202;-60
2022/06/05 13:50:32;;;;;;;8.60;8.00;;;;;;;;;;5115941;28;20218;-60
2022/06/05 13:53:09;;;;;;;8.20;7.70;;;;;;;;;;5116800;28;20581;-60
2022/06/05 13:55:38;;;;;;;8.63;8.02;;;;;;;;;;5115940;28;20199;-60
2022/06/05 13:58:12;;;;;;;8.63;8.02;;;;;;;;;;5115982;28;20207;-62
2022/06/05 14:00:50;;;;;;;8.40;7.90;;;;;;;;;;5115829;28;20202;-59
2022/06/05 14:03:33;;;;;;;8.55;7.95;;;;;;;;;;5116209;28;20292;-61
2022/06/05 14:06:03;;;;;;;9.07;8.48;;;;;;;;;;5114618;28;20198;-60
2022/06/05 14:08:34;;;;;;;8.82;8.23;;;;;;;;;;5117192;28;20209;-60
2022/06/05 14:11:02;;;;;;;8.65;8.02;;;;;;;;;;5115981;28;20215;-60
2022/06/05 14:13:40;;;;;;;8.55;8.05;;;;;;;;;;5116732;28;20199;-60
2022/06/05 14:16:08;;;;;;;8.90;8.25;;;;;;;;;;5116780;28;20210;-60
2022/06/05 14:18:41;;;;;;;8.50;7.80;;;;;;;;;;5117253;28;20199;-60
2022/06/05 14:21:13;;;;;;;8.68;8.07;;;;;;;;;;5116747;28;20195;-60
2022/06/05 14:23:44;;;;;;;8.20;7.70;;;;;;;;;;5115781;28;20203;-60
2022/06/05 14:26:12;;;;;;;8.55;7.82;;;;;;;;;;5116174;28;20642;-60
2022/06/05 14:28:41;;;;;;;8.43;7.82;;;;;;;;;;5116224;28;20203;-60
2022/06/05 14:31:12;;;;;;;8.35;7.75;;;;;;;;;;5114773;28;20353;-60
2022/06/05 14:33:43;;;;;;;8.10;7.50;;;;;;;;;;5094321;28;20199;-60
2022/06/05 14:36:18;;;;;;;8.10;7.50;;;;;;;;;;5113292;28;20190;-60
2022/06/05 14:38:48;;;;;;;8.52;7.93;;;;;;;;;;5115948;28;20194;-61
2022/06/05 14:41:17;;;;;;;8.10;7.50;;;;;;;;;;5121446;27;20222;-61
2022/06/05 14:43:49;;;;;;;8.48;7.80;;;;;;;;;;5134715;27;20198;-60
2022/06/05 14:46:32;;;;;;;8.07;7.47;;;;;;;;;;5135732;27;20279;-60
2022/06/05 14:49:04;;;;;;;8.23;7.72;;;;;;;;;;5134482;27;20194;-60
2022/06/05 14:51:36;;;;;;;8.90;8.23;;;;;;;;;;5134121;27;20609;-60
2022/06/05 14:54:06;;;;;;;8.30;7.70;;;;;;;;;;5135896;27;20209;-60
2022/06/05 14:59:27;;;;;;;8.35;7.82;;;;;;;;;;5135293;27;20267;-61
2022/06/05 15:01:57;;;;;;;8.27;7.75;;;;;;;;;;5135739;27;20866;-61
2022/06/05 15:04:34;;;;;;;7.68;7.18;;;;;;;;;;5135967;27;20194;-61
2022/06/05 15:07:05;;;;;;;7.80;7.20;;;;;;;;;;5136949;27;20202;-61
2022/06/05 15:09:36;;;;;;;7.88;7.32;;;;;;;;;;5135563;27;20213;-61
2022/06/05 15:12:08;;;;;;;8.40;7.80;;;;;;;;;;5134301;27;20218;-61
2022/06/05 15:14:40;;;;;;;7.78;7.28;;;;;;;;;;5136387;27;20201;-61
2022/06/05 15:17:21;;;;;;;8.00;7.50;;;;;;;;;;5135300;27;20205;-61